sensor_id;sensor_type;location;lat;lon;timestamp;temperature;humidity
39315;DHT22;28703;44.412;11.918;2023-07-20T00:01:23;29.90;93.00
39315;DHT22;28703;44.412;11.918;2023-07-20T00:03:49;29.80;93.00
39315;DHT22;28703;44.412;11.918;2023-07-20T00:06:25;29.80;93.10
39315;DHT22;28703;44.412;11.918;2023-07-20T00:08:54;29.80;93.20
39315;DHT22;28703;44.412;11.918;2023-07-20T00:11:21;29.70;93.20
39315;DHT22;28703;44.412;11.918;2023-07-20T00:13:47;29.70;93.30
39315;DHT22;28703;44.412;11.918;2023-07-20T00:16:13;29.70;93.30
39315;DHT22;28703;44.412;11.918;2023-07-20T00:18:39;29.70;93.40
39315;DHT22;28703;44.412;11.918;2023-07-20T00:21:04;29.70;93.50
39315;DHT22;28703;44.412;11.918;2023-07-20T00:23:30;29.70;93.60
39315;DHT22;28703;44.412;11.918;2023-07-20T00:25:57;29.70;93.80
39315;DHT22;28703;44.412;11.918;2023-07-20T00:28:23;29.60;93.80
39315;DHT22;28703;44.412;11.918;2023-07-20T00:30:49;29.60;94.10
39315;DHT22;28703;44.412;11.918;2023-07-20T00:33:17;29.60;94.20
39315;DHT22;28703;44.412;11.918;2023-07-20T00:35:43;29.60;94.50
39315;DHT22;28703;44.412;11.918;2023-07-20T00:38:35;29.60;94.60
39315;DHT22;28703;44.412;11.918;2023-07-20T00:41:01;29.50;95.00
39315;DHT22;28703;44.412;11.918;2023-07-20T00:43:27;29.50;94.90
39315;DHT22;28703;44.412;11.918;2023-07-20T00:45:53;29.50;95.00
39315;DHT22;28703;44.412;11.918;2023-07-20T00:48:19;29.40;95.00
39315;DHT22;28703;44.412;11.918;2023-07-20T00:50:45;29.40;95.20
39315;DHT22;28703;44.412;11.918;2023-07-20T00:53:12;29.50;95.30
39315;DHT22;28703;44.412;11.918;2023-07-20T00:55:38;29.40;95.30
39315;DHT22;28703;44.412;11.918;2023-07-20T00:58:06;29.40;95.50
39315;DHT22;28703;44.412;11.918;2023-07-20T01:00:34;29.40;95.60
39315;DHT22;28703;44.412;11.918;2023-07-20T01:03:00;29.40;95.70
39315;DHT22;28703;44.412;11.918;2023-07-20T01:05:38;29.40;95.80
39315;DHT22;28703;44.412;11.918;2023-07-20T01:08:15;29.30;95.90
39315;DHT22;28703;44.412;11.918;2023-07-20T01:10:50;29.30;95.90
39315;DHT22;28703;44.412;11.918;2023-07-20T01:13:18;29.30;95.80
39315;DHT22;28703;44.412;11.918;2023-07-20T01:15:56;29.30;95.70
39315;DHT22;28703;44.412;11.918;2023-07-20T01:18:22;29.20;95.60
39315;DHT22;28703;44.412;11.918;2023-07-20T01:20:49;29.20;95.50
39315;DHT22;28703;44.412;11.918;2023-07-20T01:28:56;29.10;95.40
39315;DHT22;28703;44.412;11.918;2023-07-20T01:31:32;29.10;95.40
39315;DHT22;28703;44.412;11.918;2023-07-20T01:34:00;29.10;95.30
39315;DHT22;28703;44.412;11.918;2023-07-20T01:36:29;29.00;95.20
39315;DHT22;28703;44.412;11.918;2023-07-20T01:38:56;29.00;95.20
39315;DHT22;28703;44.412;11.918;2023-07-20T01:41:23;29.00;95.30
39315;DHT22;28703;44.412;11.918;2023-07-20T01:43:49;28.90;95.30
39315;DHT22;28703;44.412;11.918;2023-07-20T01:46:15;28.90;95.30
39315;DHT22;28703;44.412;11.918;2023-07-20T01:48:41;28.90;95.40
39315;DHT22;28703;44.412;11.918;2023-07-20T01:51:08;28.90;95.50
39315;DHT22;28703;44.412;11.918;2023-07-20T01:53:34;28.80;95.50
39315;DHT22;28703;44.412;11.918;2023-07-20T01:55:59;28.80;95.60
39315;DHT22;28703;44.412;11.918;2023-07-20T01:58:25;28.80;95.60
39315;DHT22;28703;44.412;11.918;2023-07-20T02:00:51;28.80;95.70
39315;DHT22;28703;44.412;11.918;2023-07-20T02:03:18;28.80;95.70
39315;DHT22;28703;44.412;11.918;2023-07-20T02:05:44;28.80;95.80
39315;DHT22;28703;44.412;11.918;2023-07-20T02:08:10;28.70;95.80
39315;DHT22;28703;44.412;11.918;2023-07-20T02:10:36;28.70;95.90
39315;DHT22;28703;44.412;11.918;2023-07-20T02:13:02;28.70;95.90
39315;DHT22;28703;44.412;11.918;2023-07-20T02:15:28;28.70;95.90
39315;DHT22;28703;44.412;11.918;2023-07-20T02:17:54;28.70;95.90
39315;DHT22;28703;44.412;11.918;2023-07-20T02:20:20;28.60;95.80
39315;DHT22;28703;44.412;11.918;2023-07-20T02:22:46;28.60;95.80
39315;DHT22;28703;44.412;11.918;2023-07-20T02:25:12;28.50;95.50
39315;DHT22;28703;44.412;11.918;2023-07-20T02:27:38;28.40;95.20
39315;DHT22;28703;44.412;11.918;2023-07-20T02:30:05;28.40;95.00
39315;DHT22;28703;44.412;11.918;2023-07-20T02:32:31;28.30;94.80
39315;DHT22;28703;44.412;11.918;2023-07-20T02:34:58;28.20;94.70
39315;DHT22;28703;44.412;11.918;2023-07-20T02:37:24;28.20;94.60
39315;DHT22;28703;44.412;11.918;2023-07-20T02:39:50;28.10;94.40
39315;DHT22;28703;44.412;11.918;2023-07-20T02:42:16;28.00;94.00
39315;DHT22;28703;44.412;11.918;2023-07-20T02:44:42;27.90;93.90
39315;DHT22;28703;44.412;11.918;2023-07-20T02:47:08;27.90;93.70
39315;DHT22;28703;44.412;11.918;2023-07-20T02:49:34;27.80;93.60
39315;DHT22;28703;44.412;11.918;2023-07-20T02:52:00;27.70;93.50
39315;DHT22;28703;44.412;11.918;2023-07-20T02:54:26;27.70;93.50
39315;DHT22;28703;44.412;11.918;2023-07-20T02:56:52;27.60;93.50
39315;DHT22;28703;44.412;11.918;2023-07-20T02:59:18;27.60;93.40
39315;DHT22;28703;44.412;11.918;2023-07-20T03:01:44;27.50;93.40
39315;DHT22;28703;44.412;11.918;2023-07-20T03:04:10;27.50;93.30
39315;DHT22;28703;44.412;11.918;2023-07-20T03:06:36;27.40;93.30
39315;DHT22;28703;44.412;11.918;2023-07-20T03:09:03;27.40;93.30
39315;DHT22;28703;44.412;11.918;2023-07-20T03:11:32;27.40;93.30
39315;DHT22;28703;44.412;11.918;2023-07-20T03:13:59;27.30;93.40
39315;DHT22;28703;44.412;11.918;2023-07-20T03:16:25;27.30;93.40
39315;DHT22;28703;44.412;11.918;2023-07-20T03:18:52;27.30;93.50
39315;DHT22;28703;44.412;11.918;2023-07-20T03:21:19;27.30;93.50
39315;DHT22;28703;44.412;11.918;2023-07-20T03:23:45;27.20;93.50
39315;DHT22;28703;44.412;11.918;2023-07-20T03:26:11;27.20;93.50
39315;DHT22;28703;44.412;11.918;2023-07-20T03:28:38;27.10;93.60
39315;DHT22;28703;44.412;11.918;2023-07-20T03:31:05;27.00;93.60
39315;DHT22;28703;44.412;11.918;2023-07-20T03:33:36;26.90;93.70
39315;DHT22;28703;44.412;11.918;2023-07-20T03:36:03;26.80;93.70
39315;DHT22;28703;44.412;11.918;2023-07-20T03:38:29;26.70;93.80
39315;DHT22;28703;44.412;11.918;2023-07-20T03:40:57;26.60;93.90
39315;DHT22;28703;44.412;11.918;2023-07-20T03:43:25;26.50;94.00
39315;DHT22;28703;44.412;11.918;2023-07-20T03:45:52;26.40;94.20
39315;DHT22;28703;44.412;11.918;2023-07-20T03:48:22;26.30;94.20
39315;DHT22;28703;44.412;11.918;2023-07-20T03:50:51;26.30;94.60
39315;DHT22;28703;44.412;11.918;2023-07-20T03:53:18;26.20;94.30
39315;DHT22;28703;44.412;11.918;2023-07-20T03:55:48;26.20;94.50
39315;DHT22;28703;44.412;11.918;2023-07-20T03:58:15;26.20;94.70
39315;DHT22;28703;44.412;11.918;2023-07-20T04:00:46;26.20;94.60
39315;DHT22;28703;44.412;11.918;2023-07-20T04:03:14;26.10;94.80
39315;DHT22;28703;44.412;11.918;2023-07-20T04:05:40;26.10;94.80
39315;DHT22;28703;44.412;11.918;2023-07-20T04:08:06;26.10;94.80
39315;DHT22;28703;44.412;11.918;2023-07-20T04:10:32;26.00;94.90
39315;DHT22;28703;44.412;11.918;2023-07-20T04:12:58;25.90;94.80
39315;DHT22;28703;44.412;11.918;2023-07-20T04:15:24;25.90;94.80
39315;DHT22;28703;44.412;11.918;2023-07-20T04:17:50;25.90;94.90
39315;DHT22;28703;44.412;11.918;2023-07-20T04:20:16;25.90;95.30
39315;DHT22;28703;44.412;11.918;2023-07-20T04:22:43;25.80;94.90
39315;DHT22;28703;44.412;11.918;2023-07-20T04:25:12;25.90;95.00
39315;DHT22;28703;44.412;11.918;2023-07-20T04:27:38;25.80;95.00
39315;DHT22;28703;44.412;11.918;2023-07-20T04:30:08;25.80;95.00
39315;DHT22;28703;44.412;11.918;2023-07-20T04:32:34;25.80;95.00
39315;DHT22;28703;44.412;11.918;2023-07-20T04:35:06;25.80;95.00
39315;DHT22;28703;44.412;11.918;2023-07-20T04:37:33;25.70;95.10
39315;DHT22;28703;44.412;11.918;2023-07-20T04:40:01;25.70;95.30
39315;DHT22;28703;44.412;11.918;2023-07-20T04:42:27;25.60;95.20
39315;DHT22;28703;44.412;11.918;2023-07-20T04:44:53;25.60;95.20
39315;DHT22;28703;44.412;11.918;2023-07-20T04:47:19;25.70;95.10
39315;DHT22;28703;44.412;11.918;2023-07-20T04:49:47;25.70;95.10
39315;DHT22;28703;44.412;11.918;2023-07-20T04:52:13;25.70;95.10
39315;DHT22;28703;44.412;11.918;2023-07-20T04:54:39;25.50;95.10
39315;DHT22;28703;44.412;11.918;2023-07-20T04:57:11;25.60;95.20
39315;DHT22;28703;44.412;11.918;2023-07-20T04:59:43;25.60;95.20
39315;DHT22;28703;44.412;11.918;2023-07-20T05:02:09;25.50;95.20
39315;DHT22;28703;44.412;11.918;2023-07-20T05:04:35;25.60;95.20
39315;DHT22;28703;44.412;11.918;2023-07-20T05:07:01;25.60;95.30
39315;DHT22;28703;44.412;11.918;2023-07-20T05:09:27;25.60;95.30
39315;DHT22;28703;44.412;11.918;2023-07-20T05:11:53;25.60;95.30
39315;DHT22;28703;44.412;11.918;2023-07-20T05:14:19;25.60;95.30
39315;DHT22;28703;44.412;11.918;2023-07-20T05:16:46;25.60;95.30
39315;DHT22;28703;44.412;11.918;2023-07-20T05:19:12;25.70;95.30
39315;DHT22;28703;44.412;11.918;2023-07-20T05:21:38;25.70;95.40
39315;DHT22;28703;44.412;11.918;2023-07-20T05:24:04;25.70;95.40
39315;DHT22;28703;44.412;11.918;2023-07-20T05:26:31;25.80;95.40
39315;DHT22;28703;44.412;11.918;2023-07-20T05:28:56;25.80;95.40
39315;DHT22;28703;44.412;11.918;2023-07-20T05:31:22;25.80;95.40
39315;DHT22;28703;44.412;11.918;2023-07-20T05:33:48;25.90;95.40
39315;DHT22;28703;44.412;11.918;2023-07-20T05:36:14;25.90;95.40
39315;DHT22;28703;44.412;11.918;2023-07-20T05:38:40;25.90;95.50
39315;DHT22;28703;44.412;11.918;2023-07-20T05:41:06;26.10;95.50
39315;DHT22;28703;44.412;11.918;2023-07-20T05:43:36;26.10;95.50
39315;DHT22;28703;44.412;11.918;2023-07-20T05:46:01;26.10;95.50
39315;DHT22;28703;44.412;11.918;2023-07-20T05:48:27;26.20;95.40
39315;DHT22;28703;44.412;11.918;2023-07-20T05:50:53;26.30;95.40
39315;DHT22;28703;44.412;11.918;2023-07-20T05:53:19;26.30;95.40
39315;DHT22;28703;44.412;11.918;2023-07-20T05:55:52;26.40;95.40
39315;DHT22;28703;44.412;11.918;2023-07-20T05:58:17;26.40;95.40
39315;DHT22;28703;44.412;11.918;2023-07-20T06:00:47;26.40;95.30
39315;DHT22;28703;44.412;11.918;2023-07-20T06:03:12;26.50;95.40
39315;DHT22;28703;44.412;11.918;2023-07-20T06:05:38;26.50;95.30
39315;DHT22;28703;44.412;11.918;2023-07-20T06:08:04;26.60;95.30
39315;DHT22;28703;44.412;11.918;2023-07-20T06:10:30;26.60;95.30
39315;DHT22;28703;44.412;11.918;2023-07-20T06:12:56;26.70;95.40
39315;DHT22;28703;44.412;11.918;2023-07-20T06:15:27;26.80;95.40
39315;DHT22;28703;44.412;11.918;2023-07-20T06:17:55;26.80;95.30
39315;DHT22;28703;44.412;11.918;2023-07-20T06:20:22;26.90;95.30
39315;DHT22;28703;44.412;11.918;2023-07-20T06:22:48;26.90;95.20
39315;DHT22;28703;44.412;11.918;2023-07-20T06:25:14;27.00;95.10
39315;DHT22;28703;44.412;11.918;2023-07-20T06:27:40;27.10;95.10
39315;DHT22;28703;44.412;11.918;2023-07-20T06:30:06;27.10;95.10
39315;DHT22;28703;44.412;11.918;2023-07-20T06:32:32;27.20;95.10
39315;DHT22;28703;44.412;11.918;2023-07-20T06:34:58;27.20;95.00
39315;DHT22;28703;44.412;11.918;2023-07-20T06:37:24;27.30;94.90
39315;DHT22;28703;44.412;11.918;2023-07-20T06:39:49;27.40;94.90
39315;DHT22;28703;44.412;11.918;2023-07-20T06:42:15;27.40;94.90
39315;DHT22;28703;44.412;11.918;2023-07-20T06:44:41;27.50;94.80
39315;DHT22;28703;44.412;11.918;2023-07-20T06:47:07;27.50;94.60
39315;DHT22;28703;44.412;11.918;2023-07-20T06:49:33;27.60;94.60
39315;DHT22;28703;44.412;11.918;2023-07-20T06:51:59;27.60;94.50
39315;DHT22;28703;44.412;11.918;2023-07-20T06:54:24;27.70;94.50
39315;DHT22;28703;44.412;11.918;2023-07-20T06:56:50;27.70;94.40
39315;DHT22;28703;44.412;11.918;2023-07-20T06:59:16;27.70;94.40
39315;DHT22;28703;44.412;11.918;2023-07-20T07:01:42;27.80;94.40
39315;DHT22;28703;44.412;11.918;2023-07-20T07:04:08;27.80;94.60
39315;DHT22;28703;44.412;11.918;2023-07-20T07:06:35;27.80;94.30
39315;DHT22;28703;44.412;11.918;2023-07-20T07:09:02;27.80;94.30
39315;DHT22;28703;44.412;11.918;2023-07-20T07:11:29;27.90;94.40
39315;DHT22;28703;44.412;11.918;2023-07-20T07:13:55;27.90;94.30
39315;DHT22;28703;44.412;11.918;2023-07-20T07:16:20;28.00;94.40
39315;DHT22;28703;44.412;11.918;2023-07-20T07:18:46;28.00;94.40
39315;DHT22;28703;44.412;11.918;2023-07-20T07:21:12;28.00;94.40
39315;DHT22;28703;44.412;11.918;2023-07-20T07:23:39;28.10;94.50
39315;DHT22;28703;44.412;11.918;2023-07-20T07:26:05;28.10;94.50
39315;DHT22;28703;44.412;11.918;2023-07-20T07:28:31;28.20;94.40
39315;DHT22;28703;44.412;11.918;2023-07-20T07:30:57;28.20;94.30
39315;DHT22;28703;44.412;11.918;2023-07-20T07:33:23;28.20;94.30
39315;DHT22;28703;44.412;11.918;2023-07-20T07:35:53;28.10;94.30
39315;DHT22;28703;44.412;11.918;2023-07-20T07:38:19;28.20;94.40
39315;DHT22;28703;44.412;11.918;2023-07-20T07:40:45;28.20;94.80
39315;DHT22;28703;44.412;11.918;2023-07-20T07:43:12;28.30;94.60
39315;DHT22;28703;44.412;11.918;2023-07-20T07:45:39;28.30;94.60
39315;DHT22;28703;44.412;11.918;2023-07-20T07:48:06;28.40;94.60
39315;DHT22;28703;44.412;11.918;2023-07-20T07:50:33;28.40;94.60
39315;DHT22;28703;44.412;11.918;2023-07-20T07:52:59;28.50;94.60
39315;DHT22;28703;44.412;11.918;2023-07-20T07:55:25;28.50;94.70
39315;DHT22;28703;44.412;11.918;2023-07-20T07:57:54;28.60;94.70
39315;DHT22;28703;44.412;11.918;2023-07-20T08:00:20;28.50;94.70
39315;DHT22;28703;44.412;11.918;2023-07-20T08:02:46;28.50;94.60
39315;DHT22;28703;44.412;11.918;2023-07-20T08:05:14;28.60;94.70
39315;DHT22;28703;44.412;11.918;2023-07-20T08:07:40;28.60;94.90
39315;DHT22;28703;44.412;11.918;2023-07-20T08:10:06;28.60;94.90
39315;DHT22;28703;44.412;11.918;2023-07-20T08:12:33;28.60;95.10
39315;DHT22;28703;44.412;11.918;2023-07-20T08:14:59;28.60;95.20
39315;DHT22;28703;44.412;11.918;2023-07-20T08:17:25;28.70;95.50
39315;DHT22;28703;44.412;11.918;2023-07-20T08:19:50;28.70;95.40
39315;DHT22;28703;44.412;11.918;2023-07-20T08:22:16;28.70;95.50
39315;DHT22;28703;44.412;11.918;2023-07-20T08:24:43;28.80;95.50
39315;DHT22;28703;44.412;11.918;2023-07-20T08:27:09;28.80;95.40
39315;DHT22;28703;44.412;11.918;2023-07-20T08:29:36;28.80;95.30
39315;DHT22;28703;44.412;11.918;2023-07-20T08:32:02;28.80;95.40
39315;DHT22;28703;44.412;11.918;2023-07-20T08:34:30;28.90;95.80
39315;DHT22;28703;44.412;11.918;2023-07-20T08:36:56;28.90;95.60
39315;DHT22;28703;44.412;11.918;2023-07-20T08:39:23;29.00;95.70
39315;DHT22;28703;44.412;11.918;2023-07-20T08:41:50;29.00;95.90
39315;DHT22;28703;44.412;11.918;2023-07-20T08:44:17;29.10;95.80
39315;DHT22;28703;44.412;11.918;2023-07-20T08:46:44;29.10;95.80
39315;DHT22;28703;44.412;11.918;2023-07-20T08:49:11;29.20;95.80
39315;DHT22;28703;44.412;11.918;2023-07-20T08:51:37;29.30;95.80
39315;DHT22;28703;44.412;11.918;2023-07-20T08:54:04;29.30;95.70
39315;DHT22;28703;44.412;11.918;2023-07-20T08:56:31;29.40;95.50
39315;DHT22;28703;44.412;11.918;2023-07-20T08:58:59;29.40;95.40
39315;DHT22;28703;44.412;11.918;2023-07-20T09:01:27;29.40;95.30
39315;DHT22;28703;44.412;11.918;2023-07-20T09:03:53;29.50;95.30
39315;DHT22;28703;44.412;11.918;2023-07-20T09:06:19;29.40;95.30
39315;DHT22;28703;44.412;11.918;2023-07-20T09:08:45;29.50;95.30
39315;DHT22;28703;44.412;11.918;2023-07-20T09:11:12;29.50;95.10
39315;DHT22;28703;44.412;11.918;2023-07-20T09:13:39;29.50;95.10
39315;DHT22;28703;44.412;11.918;2023-07-20T09:16:05;29.60;95.20
39315;DHT22;28703;44.412;11.918;2023-07-20T09:18:32;29.60;95.40
39315;DHT22;28703;44.412;11.918;2023-07-20T09:20:59;29.70;95.10
39315;DHT22;28703;44.412;11.918;2023-07-20T09:23:34;29.70;95.00
39315;DHT22;28703;44.412;11.918;2023-07-20T09:26:04;29.70;95.10
39315;DHT22;28703;44.412;11.918;2023-07-20T09:28:47;29.80;95.10
39315;DHT22;28703;44.412;11.918;2023-07-20T09:31:18;29.80;95.00
39315;DHT22;28703;44.412;11.918;2023-07-20T09:33:44;29.90;95.10
39315;DHT22;28703;44.412;11.918;2023-07-20T09:36:10;29.90;95.20
39315;DHT22;28703;44.412;11.918;2023-07-20T09:38:37;30.00;95.30
39315;DHT22;28703;44.412;11.918;2023-07-20T09:41:05;30.10;95.30
39315;DHT22;28703;44.412;11.918;2023-07-20T09:43:33;30.20;95.30
39315;DHT22;28703;44.412;11.918;2023-07-20T09:46:00;30.20;95.20
39315;DHT22;28703;44.412;11.918;2023-07-20T09:48:26;30.20;95.00
39315;DHT22;28703;44.412;11.918;2023-07-20T09:50:53;30.30;94.80
39315;DHT22;28703;44.412;11.918;2023-07-20T09:53:19;30.40;94.90
39315;DHT22;28703;44.412;11.918;2023-07-20T09:55:47;30.40;94.60
39315;DHT22;28703;44.412;11.918;2023-07-20T09:58:16;30.40;94.40
39315;DHT22;28703;44.412;11.918;2023-07-20T10:00:43;30.40;94.40
39315;DHT22;28703;44.412;11.918;2023-07-20T10:03:18;30.40;94.40
39315;DHT22;28703;44.412;11.918;2023-07-20T10:05:49;30.40;94.30
39315;DHT22;28703;44.412;11.918;2023-07-20T10:08:17;30.40;94.20
39315;DHT22;28703;44.412;11.918;2023-07-20T10:10:44;30.40;94.30
39315;DHT22;28703;44.412;11.918;2023-07-20T10:13:17;30.50;94.40
39315;DHT22;28703;44.412;11.918;2023-07-20T10:15:48;30.50;94.20
39315;DHT22;28703;44.412;11.918;2023-07-20T10:18:29;30.50;94.20
39315;DHT22;28703;44.412;11.918;2023-07-20T10:20:56;30.60;94.20
39315;DHT22;28703;44.412;11.918;2023-07-20T10:23:23;30.70;94.30
39315;DHT22;28703;44.412;11.918;2023-07-20T10:25:50;30.70;93.90
39315;DHT22;28703;44.412;11.918;2023-07-20T10:28:16;30.60;93.90
39315;DHT22;28703;44.412;11.918;2023-07-20T10:30:43;30.70;93.90
39315;DHT22;28703;44.412;11.918;2023-07-20T10:33:09;30.60;93.70
39315;DHT22;28703;44.412;11.918;2023-07-20T10:38:56;30.70;93.80
39315;DHT22;28703;44.412;11.918;2023-07-20T10:41:38;30.70;93.80
39315;DHT22;28703;44.412;11.918;2023-07-20T10:44:07;30.80;93.80
39315;DHT22;28703;44.412;11.918;2023-07-20T10:46:44;30.80;93.90
39315;DHT22;28703;44.412;11.918;2023-07-20T10:49:11;30.90;93.70
39315;DHT22;28703;44.412;11.918;2023-07-20T10:51:43;31.00;93.90
39315;DHT22;28703;44.412;11.918;2023-07-20T10:56:47;31.20;93.80
39315;DHT22;28703;44.412;11.918;2023-07-20T10:59:41;31.20;93.80
39315;DHT22;28703;44.412;11.918;2023-07-20T11:02:07;31.20;93.60
39315;DHT22;28703;44.412;11.918;2023-07-20T11:04:41;31.30;93.60
39315;DHT22;28703;44.412;11.918;2023-07-20T11:07:07;31.30;93.50
39315;DHT22;28703;44.412;11.918;2023-07-20T11:09:37;31.40;93.60
39315;DHT22;28703;44.412;11.918;2023-07-20T11:12:14;31.40;93.50
39315;DHT22;28703;44.412;11.918;2023-07-20T11:14:56;31.40;93.00
39315;DHT22;28703;44.412;11.918;2023-07-20T11:17:29;31.40;93.20
39315;DHT22;28703;44.412;11.918;2023-07-20T11:19:59;31.50;93.50
39315;DHT22;28703;44.412;11.918;2023-07-20T11:22:31;31.60;93.50
39315;DHT22;28703;44.412;11.918;2023-07-20T11:24:57;31.60;93.40
39315;DHT22;28703;44.412;11.918;2023-07-20T11:27:24;31.70;93.40
39315;DHT22;28703;44.412;11.918;2023-07-20T11:29:50;31.80;93.60
39315;DHT22;28703;44.412;11.918;2023-07-20T11:32:23;31.90;93.40
39315;DHT22;28703;44.412;11.918;2023-07-20T11:34:49;32.10;93.30
39315;DHT22;28703;44.412;11.918;2023-07-20T11:37:17;32.10;93.30
39315;DHT22;28703;44.412;11.918;2023-07-20T11:39:43;32.20;93.30
39315;DHT22;28703;44.412;11.918;2023-07-20T11:42:10;32.40;93.30
39315;DHT22;28703;44.412;11.918;2023-07-20T11:44:37;32.40;93.30
39315;DHT22;28703;44.412;11.918;2023-07-20T11:47:10;32.50;92.30
39315;DHT22;28703;44.412;11.918;2023-07-20T11:49:41;32.40;92.30
39315;DHT22;28703;44.412;11.918;2023-07-20T11:52:10;32.50;92.30
39315;DHT22;28703;44.412;11.918;2023-07-20T11:54:40;32.50;92.30
39315;DHT22;28703;44.412;11.918;2023-07-20T11:57:07;32.50;92.60
39315;DHT22;28703;44.412;11.918;2023-07-20T11:59:33;32.60;92.80
39315;DHT22;28703;44.412;11.918;2023-07-20T12:02:03;32.70;92.80
39315;DHT22;28703;44.412;11.918;2023-07-20T12:04:31;32.90;92.20
39315;DHT22;28703;44.412;11.918;2023-07-20T12:06:58;32.80;92.00
39315;DHT22;28703;44.412;11.918;2023-07-20T12:09:24;32.90;92.00
39315;DHT22;28703;44.412;11.918;2023-07-20T12:11:50;32.90;92.00
39315;DHT22;28703;44.412;11.918;2023-07-20T12:14:16;33.00;92.00
39315;DHT22;28703;44.412;11.918;2023-07-20T12:16:42;33.10;92.00
39315;DHT22;28703;44.412;11.918;2023-07-20T12:19:12;33.10;91.50
39315;DHT22;28703;44.412;11.918;2023-07-20T12:21:40;33.10;91.30
39315;DHT22;28703;44.412;11.918;2023-07-20T12:24:07;33.10;91.20
39315;DHT22;28703;44.412;11.918;2023-07-20T12:26:34;33.20;91.30
39315;DHT22;28703;44.412;11.918;2023-07-20T12:29:01;33.30;91.20
39315;DHT22;28703;44.412;11.918;2023-07-20T12:31:27;33.30;91.30
39315;DHT22;28703;44.412;11.918;2023-07-20T12:33:56;33.30;90.90
39315;DHT22;28703;44.412;11.918;2023-07-20T12:36:23;33.30;90.90
39315;DHT22;28703;44.412;11.918;2023-07-20T12:38:49;33.30;90.80
39315;DHT22;28703;44.412;11.918;2023-07-20T12:41:15;33.40;90.70
39315;DHT22;28703;44.412;11.918;2023-07-20T12:43:42;33.40;90.80
39315;DHT22;28703;44.412;11.918;2023-07-20T12:46:09;33.50;90.60
39315;DHT22;28703;44.412;11.918;2023-07-20T12:48:38;33.60;90.60
39315;DHT22;28703;44.412;11.918;2023-07-20T12:51:06;33.70;90.50
39315;DHT22;28703;44.412;11.918;2023-07-20T12:53:33;33.80;90.60
39315;DHT22;28703;44.412;11.918;2023-07-20T12:55:59;33.90;90.30
39315;DHT22;28703;44.412;11.918;2023-07-20T12:58:25;33.90;89.70
39315;DHT22;28703;44.412;11.918;2023-07-20T13:00:52;33.90;89.80
39315;DHT22;28703;44.412;11.918;2023-07-20T13:03:19;33.90;89.80
39315;DHT22;28703;44.412;11.918;2023-07-20T13:05:46;33.90;89.90
39315;DHT22;28703;44.412;11.918;2023-07-20T13:08:13;34.00;90.00
39315;DHT22;28703;44.412;11.918;2023-07-20T13:10:39;34.10;89.70
39315;DHT22;28703;44.412;11.918;2023-07-20T13:13:05;34.20;89.50
39315;DHT22;28703;44.412;11.918;2023-07-20T13:15:32;34.30;89.90
39315;DHT22;28703;44.412;11.918;2023-07-20T13:18:06;34.50;90.10
39315;DHT22;28703;44.412;11.918;2023-07-20T13:20:32;34.70;90.10
39315;DHT22;28703;44.412;11.918;2023-07-20T13:22:59;34.80;90.10
39315;DHT22;28703;44.412;11.918;2023-07-20T13:25:25;35.00;90.00
39315;DHT22;28703;44.412;11.918;2023-07-20T13:27:52;35.20;90.10
39315;DHT22;28703;44.412;11.918;2023-07-20T13:30:19;35.40;90.00
39315;DHT22;28703;44.412;11.918;2023-07-20T13:32:47;35.50;89.90
39315;DHT22;28703;44.412;11.918;2023-07-20T13:35:14;35.70;89.40
39315;DHT22;28703;44.412;11.918;2023-07-20T13:37:41;35.80;88.30
39315;DHT22;28703;44.412;11.918;2023-07-20T13:40:07;35.80;88.30
39315;DHT22;28703;44.412;11.918;2023-07-20T13:42:38;35.90;88.30
39315;DHT22;28703;44.412;11.918;2023-07-20T13:45:05;35.90;87.90
39315;DHT22;28703;44.412;11.918;2023-07-20T13:47:31;35.90;87.60
39315;DHT22;28703;44.412;11.918;2023-07-20T13:49:58;35.90;87.30
39315;DHT22;28703;44.412;11.918;2023-07-20T13:52:24;35.90;87.60
39315;DHT22;28703;44.412;11.918;2023-07-20T13:54:51;35.90;87.90
39315;DHT22;28703;44.412;11.918;2023-07-20T13:57:17;35.90;88.00
39315;DHT22;28703;44.412;11.918;2023-07-20T13:59:44;35.80;88.00
39315;DHT22;28703;44.412;11.918;2023-07-20T14:02:11;35.70;88.00
39315;DHT22;28703;44.412;11.918;2023-07-20T14:04:38;35.70;88.00
39315;DHT22;28703;44.412;11.918;2023-07-20T14:07:04;35.70;88.10
39315;DHT22;28703;44.412;11.918;2023-07-20T14:09:31;35.70;88.20
39315;DHT22;28703;44.412;11.918;2023-07-20T14:11:57;35.80;88.40
39315;DHT22;28703;44.412;11.918;2023-07-20T14:14:24;35.90;88.30
39315;DHT22;28703;44.412;11.918;2023-07-20T14:16:51;36.00;88.20
39315;DHT22;28703;44.412;11.918;2023-07-20T14:19:17;36.10;87.70
39315;DHT22;28703;44.412;11.918;2023-07-20T14:21:44;36.20;87.50
39315;DHT22;28703;44.412;11.918;2023-07-20T14:24:10;36.40;87.80
39315;DHT22;28703;44.412;11.918;2023-07-20T14:26:37;36.30;87.60
39315;DHT22;28703;44.412;11.918;2023-07-20T14:29:04;36.30;87.40
39315;DHT22;28703;44.412;11.918;2023-07-20T14:31:29;36.40;87.40
39315;DHT22;28703;44.412;11.918;2023-07-20T14:33:55;36.30;87.30
39315;DHT22;28703;44.412;11.918;2023-07-20T14:36:21;36.20;87.30
39315;DHT22;28703;44.412;11.918;2023-07-20T14:38:48;36.20;87.70
39315;DHT22;28703;44.412;11.918;2023-07-20T14:41:14;36.10;88.50
39315;DHT22;28703;44.412;11.918;2023-07-20T14:43:40;36.10;89.20
39315;DHT22;28703;44.412;11.918;2023-07-20T14:46:05;36.10;89.90
39315;DHT22;28703;44.412;11.918;2023-07-20T14:48:31;36.00;90.00
39315;DHT22;28703;44.412;11.918;2023-07-20T14:50:57;36.10;90.00
39315;DHT22;28703;44.412;11.918;2023-07-20T14:53:23;36.00;90.10
39315;DHT22;28703;44.412;11.918;2023-07-20T14:55:49;35.90;90.20
39315;DHT22;28703;44.412;11.918;2023-07-20T14:58:15;35.90;90.30
39315;DHT22;28703;44.412;11.918;2023-07-20T15:00:41;35.80;90.40
39315;DHT22;28703;44.412;11.918;2023-07-20T15:03:07;35.80;90.50
39315;DHT22;28703;44.412;11.918;2023-07-20T15:05:35;35.80;90.50
39315;DHT22;28703;44.412;11.918;2023-07-20T15:08:02;35.70;90.70
39315;DHT22;28703;44.412;11.918;2023-07-20T15:10:28;35.70;90.80
39315;DHT22;28703;44.412;11.918;2023-07-20T15:12:54;35.60;91.00
39315;DHT22;28703;44.412;11.918;2023-07-20T15:15:20;35.50;91.00
39315;DHT22;28703;44.412;11.918;2023-07-20T15:17:46;35.50;91.10
39315;DHT22;28703;44.412;11.918;2023-07-20T15:20:13;35.50;91.10
39315;DHT22;28703;44.412;11.918;2023-07-20T15:22:39;35.50;91.20
39315;DHT22;28703;44.412;11.918;2023-07-20T15:25:07;35.50;91.30
39315;DHT22;28703;44.412;11.918;2023-07-20T15:27:33;35.70;91.50